IBE447 LEPA-EDDM
Flight info
| Callsign | IBE447 |
|---|---|
| Flight time | 1h 35m |
| Altitude | 32000 |
| Route | MEROS DCT LAPIT/N0425F340 DCT CHELY/N0415F320 DCT LUMAS/N0421F340 DCT UNANA/N0391F300 DCT STP/N0448F400 DCT RAPED DCT PIGOS DCT EKSID DCT NOSTA DCT NOPMU DCT VAKON DCT TAGIP DCT GUNGO DCT TISAX DCT IVKAL T102 NINUR T101 BETOS BETOS1B |
| Aircraft | A343/H-SDE2E3FGHIJ4J5M1RWXY/LB1D1 |
Departure
| Time | 2026-05-06 17:23 |
|---|---|
| Airport | Palma de Mallorca Airport (LEPA) |
Arrival
| Time | 2026-05-06 18:58 |
|---|---|
| Airport | Munich Airport (EDDM) |
| Time | Latitude | Longitude | Altitude | Speed | Heading |
|---|---|---|---|---|---|
| 2026-05-06 16:38 | 39.55027 | 2.72737 | 34 ft | 0 kts | 138° |
| 2026-05-06 17:02 | 39.55033 | 2.72730 | 34 ft | 4 kts | 138° |
| 2026-05-06 17:02 | 39.55053 | 2.72706 | 33 ft | 4 kts | 137° |
| 2026-05-06 17:02 | 39.55069 | 2.72686 | 30 ft | 4 kts | 113° |
| 2026-05-06 17:03 | 39.55069 | 2.72656 | 29 ft | 4 kts | 60° |
| 2026-05-06 17:03 | 39.55062 | 2.72639 | 32 ft | 0 kts | 58° |
| 2026-05-06 17:09 | 39.55065 | 2.72646 | 34 ft | 3 kts | 58° |
| 2026-05-06 17:09 | 39.55088 | 2.72695 | 34 ft | 9 kts | 58° |
| 2026-05-06 17:09 | 39.55129 | 2.72781 | 34 ft | 13 kts | 58° |
| 2026-05-06 17:10 | 39.55179 | 2.72889 | 34 ft | 15 kts | 58° |
| 2026-05-06 17:10 | 39.55240 | 2.73016 | 34 ft | 18 kts | 58° |
| 2026-05-06 17:10 | 39.55309 | 2.73160 | 34 ft | 20 kts | 58° |
| 2026-05-06 17:10 | 39.55384 | 2.73319 | 34 ft | 22 kts | 59° |
| 2026-05-06 17:11 | 39.55465 | 2.73487 | 34 ft | 20 kts | 58° |
| 2026-05-06 17:11 | 39.55501 | 2.73579 | 34 ft | 3 kts | 97° |
| 2026-05-06 17:11 | 39.55477 | 2.73614 | 34 ft | 8 kts | 137° |
| 2026-05-06 17:11 | 39.55403 | 2.73675 | 34 ft | 16 kts | 149° |
| 2026-05-06 17:12 | 39.55290 | 2.73763 | 34 ft | 21 kts | 149° |
| 2026-05-06 17:12 | 39.55161 | 2.73865 | 34 ft | 23 kts | 148° |
| 2026-05-06 17:12 | 39.55019 | 2.73978 | 34 ft | 25 kts | 149° |
| 2026-05-06 17:12 | 39.54864 | 2.74099 | 34 ft | 27 kts | 148° |
| 2026-05-06 17:13 | 39.54789 | 2.74114 | 34 ft | 5 kts | 208° |
| 2026-05-06 17:13 | 39.54759 | 2.74060 | 34 ft | 11 kts | 238° |
| 2026-05-06 17:13 | 39.54705 | 2.73947 | 34 ft | 20 kts | 238° |
| 2026-05-06 17:13 | 39.54627 | 2.73781 | 34 ft | 23 kts | 238° |
| 2026-05-06 17:14 | 39.54541 | 2.73599 | 34 ft | 25 kts | 238° |
| 2026-05-06 17:14 | 39.54448 | 2.73403 | 34 ft | 26 kts | 238° |
| 2026-05-06 17:14 | 39.54369 | 2.73235 | 34 ft | 1 kts | 238° |
| 2026-05-06 17:14 | 39.54358 | 2.73213 | 34 ft | 5 kts | 238° |
| 2026-05-06 17:15 | 39.54335 | 2.73165 | 34 ft | 8 kts | 238° |
| 2026-05-06 17:15 | 39.54301 | 2.73092 | 34 ft | 11 kts | 238° |
| 2026-05-06 17:15 | 39.54244 | 2.73063 | 34 ft | 9 kts | 159° |
| 2026-05-06 17:15 | 39.54220 | 2.73130 | 34 ft | 6 kts | 94° |
| 2026-05-06 17:16 | 39.54220 | 2.73132 | 34 ft | 0 kts | 94° |
| 2026-05-06 17:20 | 39.54220 | 2.73134 | 34 ft | 1 kts | 94° |
| 2026-05-06 17:20 | 39.54218 | 2.73173 | 34 ft | 8 kts | 94° |
| 2026-05-06 17:20 | 39.54212 | 2.73273 | 34 ft | 14 kts | 94° |
| 2026-05-06 17:20 | 39.54239 | 2.73406 | 34 ft | 17 kts | 59° |
| 2026-05-06 17:21 | 39.54254 | 2.73440 | 34 ft | 0 kts | 59° |
| 2026-05-06 17:21 | 39.54260 | 2.73452 | 34 ft | 3 kts | 59° |
| 2026-05-06 17:22 | 39.54277 | 2.73489 | 34 ft | 8 kts | 58° |
| 2026-05-06 17:22 | 39.54410 | 2.73770 | 34 ft | 75 kts | 59° |
| 2026-05-06 17:22 | 39.54816 | 2.74625 | 34 ft | 142 kts | 59° |
| 2026-05-06 17:22 | 39.55392 | 2.75778 | 531 ft | 157 kts | 56° |
| 2026-05-06 17:23 | 39.55996 | 2.77011 | 1274 ft | 168 kts | 58° |
| 2026-05-06 17:23 | 39.56654 | 2.78406 | 1801 ft | 194 kts | 61° |
| 2026-05-06 17:23 | 39.57356 | 2.79976 | 2511 ft | 208 kts | 61° |
| 2026-05-06 17:23 | 39.58111 | 2.81649 | 3281 ft | 219 kts | 61° |
| 2026-05-06 17:24 | 39.58892 | 2.83354 | 3799 ft | 220 kts | 60° |
| 2026-05-06 17:24 | 39.59680 | 2.85061 | 3980 ft | 221 kts | 60° |
| 2026-05-06 17:24 | 39.60466 | 2.86757 | 3990 ft | 223 kts | 60° |
| 2026-05-06 17:24 | 39.61269 | 2.88487 | 3994 ft | 223 kts | 60° |
| 2026-05-06 17:25 | 39.62072 | 2.90217 | 4009 ft | 223 kts | 60° |
| 2026-05-06 17:25 | 39.62870 | 2.91977 | 4318 ft | 235 kts | 62° |
| 2026-05-06 17:25 | 39.63704 | 2.93938 | 4956 ft | 258 kts | 62° |
| 2026-05-06 17:25 | 39.64588 | 2.96020 | 6051 ft | 267 kts | 61° |
| 2026-05-06 17:26 | 39.65501 | 2.98157 | 7151 ft | 275 kts | 60° |
| 2026-05-06 17:26 | 39.66435 | 3.00337 | 8265 ft | 282 kts | 60° |
| 2026-05-06 17:26 | 39.67400 | 3.02585 | 9382 ft | 288 kts | 60° |
| 2026-05-06 17:26 | 39.68391 | 3.04892 | 10345 ft | 298 kts | 60° |
| 2026-05-06 17:27 | 39.69445 | 3.07346 | 10862 ft | 323 kts | 60° |
| 2026-05-06 17:27 | 39.70570 | 3.09968 | 11473 ft | 339 kts | 60° |
| 2026-05-06 17:27 | 39.71931 | 3.12522 | 12251 ft | 349 kts | 47° |
| 2026-05-06 17:27 | 39.73666 | 3.14764 | 13088 ft | 356 kts | 41° |
| 2026-05-06 17:28 | 39.75696 | 3.16640 | 13910 ft | 360 kts | 23° |
| 2026-05-06 17:28 | 39.78097 | 3.17551 | 14714 ft | 362 kts | 5° |
| 2026-05-06 17:28 | 39.80618 | 3.17950 | 15537 ft | 367 kts | 2° |
| 2026-05-06 17:28 | 39.83174 | 3.18297 | 16402 ft | 372 kts | 2° |
| 2026-05-06 17:29 | 39.85742 | 3.18955 | 17261 ft | 382 kts | 14° |
| 2026-05-06 17:29 | 39.88227 | 3.20283 | 18115 ft | 390 kts | 22° |
| 2026-05-06 17:29 | 39.90667 | 3.21904 | 18837 ft | 397 kts | 25° |
| 2026-05-06 17:29 | 39.93068 | 3.23682 | 19525 ft | 404 kts | 27° |
| 2026-05-06 17:30 | 39.95503 | 3.25581 | 20227 ft | 410 kts | 28° |
| 2026-05-06 17:30 | 39.97960 | 3.27528 | 20918 ft | 415 kts | 28° |
| 2026-05-06 17:30 | 40.00457 | 3.29502 | 21608 ft | 421 kts | 28° |
| 2026-05-06 17:30 | 40.02971 | 3.31475 | 22279 ft | 426 kts | 27° |
| 2026-05-06 17:31 | 40.05535 | 3.33471 | 22951 ft | 431 kts | 27° |
| 2026-05-06 17:31 | 40.08142 | 3.35489 | 23601 ft | 436 kts | 27° |
| 2026-05-06 17:31 | 40.10778 | 3.37524 | 24129 ft | 441 kts | 27° |
| 2026-05-06 17:31 | 40.13408 | 3.39553 | 24658 ft | 445 kts | 27° |
| 2026-05-06 17:32 | 40.16089 | 3.41622 | 25177 ft | 450 kts | 27° |
| 2026-05-06 17:32 | 40.18800 | 3.43717 | 25694 ft | 454 kts | 27° |
| 2026-05-06 17:32 | 40.21533 | 3.45832 | 26228 ft | 458 kts | 26° |
| 2026-05-06 17:32 | 40.24298 | 3.47974 | 26712 ft | 463 kts | 26° |
| 2026-05-06 17:33 | 40.27088 | 3.50138 | 27200 ft | 467 kts | 26° |
| 2026-05-06 17:33 | 40.29897 | 3.52319 | 27689 ft | 471 kts | 26° |
| 2026-05-06 17:33 | 40.32736 | 3.54526 | 28157 ft | 475 kts | 26° |
| 2026-05-06 17:33 | 40.35555 | 3.56719 | 28613 ft | 478 kts | 26° |
| 2026-05-06 17:34 | 40.38426 | 3.58956 | 29068 ft | 482 kts | 26° |
| 2026-05-06 17:34 | 40.41335 | 3.61223 | 29516 ft | 486 kts | 26° |
| 2026-05-06 17:34 | 40.44268 | 3.63512 | 29919 ft | 491 kts | 26° |
| 2026-05-06 17:34 | 40.47221 | 3.65818 | 30249 ft | 496 kts | 26° |
| 2026-05-06 17:35 | 40.50165 | 3.68120 | 30618 ft | 499 kts | 26° |
| 2026-05-06 17:35 | 40.53163 | 3.70468 | 31006 ft | 501 kts | 26° |
| 2026-05-06 17:35 | 40.56164 | 3.72821 | 31370 ft | 504 kts | 26° |
| 2026-05-06 17:36 | 40.62197 | 3.77558 | 31920 ft | 505 kts | 26° |
| 2026-05-06 17:36 | 40.65154 | 3.79894 | 31931 ft | 487 kts | 26° |
| 2026-05-06 17:36 | 40.67102 | 3.81437 | 31918 ft | 476 kts | 26° |
| 2026-05-06 17:36 | 40.69870 | 3.83630 | 31933 ft | 464 kts | 26° |
| 2026-05-06 17:37 | 40.75424 | 3.88004 | 31948 ft | 472 kts | 25° |
| 2026-05-06 17:37 | 40.78303 | 3.90259 | 31947 ft | 485 kts | 26° |
| 2026-05-06 17:37 | 40.81245 | 3.92569 | 31949 ft | 497 kts | 26° |
| 2026-05-06 17:38 | 40.84207 | 3.94904 | 31963 ft | 508 kts | 26° |
| 2026-05-06 17:38 | 40.87286 | 3.97338 | 31946 ft | 519 kts | 26° |
| 2026-05-06 17:38 | 40.93546 | 4.02314 | 31941 ft | 524 kts | 26° |
| 2026-05-06 17:39 | 40.99789 | 4.07298 | 31941 ft | 523 kts | 26° |
| 2026-05-06 17:39 | 41.05996 | 4.12253 | 31987 ft | 523 kts | 26° |
| 2026-05-06 17:40 | 41.12246 | 4.17247 | 31943 ft | 524 kts | 26° |
| 2026-05-06 17:40 | 41.18457 | 4.22220 | 31942 ft | 524 kts | 27° |
| 2026-05-06 17:41 | 41.24716 | 4.27243 | 31945 ft | 524 kts | 27° |
| 2026-05-06 17:41 | 41.30969 | 4.32274 | 31947 ft | 525 kts | 27° |
| 2026-05-06 17:42 | 41.37188 | 4.37289 | 31947 ft | 525 kts | 27° |
| 2026-05-06 17:42 | 41.43449 | 4.42349 | 31944 ft | 525 kts | 27° |
| 2026-05-06 17:43 | 41.49716 | 4.47424 | 31962 ft | 531 kts | 27° |
| 2026-05-06 17:43 | 41.56077 | 4.52583 | 31949 ft | 536 kts | 27° |
| 2026-05-06 17:44 | 41.62406 | 4.57736 | 31923 ft | 536 kts | 27° |
| 2026-05-06 17:44 | 41.68792 | 4.62946 | 31985 ft | 537 kts | 27° |
| 2026-05-06 17:45 | 41.74850 | 4.68860 | 32417 ft | 542 kts | 40° |
| 2026-05-06 17:45 | 41.77603 | 4.72300 | 32980 ft | 540 kts | 41° |
| 2026-05-06 17:45 | 41.80308 | 4.75791 | 33493 ft | 538 kts | 42° |
| 2026-05-06 17:46 | 41.82949 | 4.79264 | 33873 ft | 539 kts | 42° |
| 2026-05-06 17:46 | 41.85628 | 4.82818 | 33947 ft | 542 kts | 43° |
| 2026-05-06 17:46 | 41.90987 | 4.89958 | 33947 ft | 539 kts | 43° |
| 2026-05-06 17:47 | 41.96286 | 4.97016 | 33932 ft | 539 kts | 43° |
| 2026-05-06 17:47 | 42.01641 | 5.04148 | 33942 ft | 541 kts | 43° |
| 2026-05-06 17:48 | 42.06993 | 5.11290 | 33944 ft | 542 kts | 43° |
| 2026-05-06 17:48 | 42.12339 | 5.18443 | 33939 ft | 541 kts | 43° |
| 2026-05-06 17:49 | 42.17646 | 5.25562 | 33939 ft | 540 kts | 43° |
| 2026-05-06 17:49 | 42.22977 | 5.32732 | 33939 ft | 540 kts | 43° |
| 2026-05-06 17:50 | 42.28277 | 5.39877 | 33959 ft | 542 kts | 44° |
| 2026-05-06 17:50 | 42.33616 | 5.47093 | 33936 ft | 542 kts | 44° |
| 2026-05-06 17:51 | 42.38958 | 5.54333 | 33933 ft | 542 kts | 44° |
| 2026-05-06 17:51 | 42.44255 | 5.61528 | 33930 ft | 542 kts | 44° |
| 2026-05-06 17:52 | 42.49579 | 5.68779 | 33944 ft | 542 kts | 44° |
| 2026-05-06 17:52 | 42.54897 | 5.76041 | 33926 ft | 542 kts | 44° |
| 2026-05-06 17:53 | 42.60188 | 5.83284 | 33922 ft | 543 kts | 44° |
| 2026-05-06 17:53 | 42.65499 | 5.90573 | 33984 ft | 542 kts | 44° |
| 2026-05-06 17:54 | 42.68156 | 5.94229 | 34336 ft | 541 kts | 44° |
| 2026-05-06 17:54 | 42.70800 | 5.97870 | 34827 ft | 537 kts | 44° |
| 2026-05-06 17:54 | 42.73415 | 6.01476 | 35310 ft | 534 kts | 44° |
| 2026-05-06 17:54 | 42.76019 | 6.05072 | 35749 ft | 531 kts | 44° |
| 2026-05-06 17:55 | 42.78604 | 6.08646 | 36152 ft | 529 kts | 44° |
| 2026-05-06 17:55 | 42.81196 | 6.12231 | 36454 ft | 530 kts | 44° |
| 2026-05-06 17:55 | 42.83749 | 6.15769 | 36781 ft | 529 kts | 44° |
| 2026-05-06 17:55 | 42.86453 | 6.19171 | 37192 ft | 526 kts | 39° |
| 2026-05-06 17:56 | 42.89217 | 6.22426 | 37653 ft | 523 kts | 38° |
| 2026-05-06 17:56 | 42.91987 | 6.25633 | 38073 ft | 521 kts | 38° |
| 2026-05-06 17:56 | 42.94764 | 6.28822 | 38458 ft | 519 kts | 37° |
| 2026-05-06 17:56 | 42.97529 | 6.31985 | 38764 ft | 518 kts | 37° |
| 2026-05-06 17:57 | 43.00255 | 6.35107 | 39000 ft | 518 kts | 37° |
| 2026-05-06 17:57 | 43.03024 | 6.38284 | 39243 ft | 518 kts | 37° |
| 2026-05-06 17:57 | 43.05781 | 6.41455 | 39501 ft | 518 kts | 38° |
| 2026-05-06 17:57 | 43.08548 | 6.44643 | 39750 ft | 517 kts | 38° |
| 2026-05-06 17:58 | 43.11306 | 6.47829 | 39879 ft | 520 kts | 38° |
| 2026-05-06 17:58 | 43.14080 | 6.51036 | 39895 ft | 523 kts | 38° |
| 2026-05-06 17:58 | 43.19594 | 6.57434 | 39891 ft | 521 kts | 38° |
| 2026-05-06 17:59 | 43.22172 | 6.60984 | 39890 ft | 523 kts | 49° |
| 2026-05-06 17:59 | 43.24437 | 6.64888 | 39897 ft | 523 kts | 51° |
| 2026-05-06 17:59 | 43.28755 | 6.72878 | 39878 ft | 523 kts | 53° |
| 2026-05-06 18:00 | 43.33013 | 6.81018 | 39868 ft | 523 kts | 53° |
| 2026-05-06 18:00 | 43.37258 | 6.89148 | 39864 ft | 524 kts | 53° |
| 2026-05-06 18:01 | 43.41527 | 6.97295 | 39859 ft | 524 kts | 53° |
| 2026-05-06 18:01 | 43.45760 | 7.05390 | 39860 ft | 523 kts | 54° |
| 2026-05-06 18:02 | 43.50010 | 7.13541 | 39855 ft | 523 kts | 54° |
| 2026-05-06 18:02 | 43.54261 | 7.21713 | 39850 ft | 523 kts | 54° |
| 2026-05-06 18:03 | 43.58470 | 7.29827 | 39848 ft | 523 kts | 54° |
| 2026-05-06 18:03 | 43.62708 | 7.38017 | 39832 ft | 523 kts | 54° |
| 2026-05-06 18:04 | 43.66942 | 7.46219 | 39832 ft | 523 kts | 54° |
| 2026-05-06 18:04 | 43.71160 | 7.54422 | 39832 ft | 523 kts | 54° |
| 2026-05-06 18:05 | 43.75347 | 7.62586 | 39822 ft | 523 kts | 54° |
| 2026-05-06 18:05 | 43.79559 | 7.70810 | 39836 ft | 522 kts | 54° |
| 2026-05-06 18:06 | 43.84472 | 7.78090 | 39836 ft | 520 kts | 38° |
| 2026-05-06 18:06 | 43.90103 | 7.84386 | 39828 ft | 519 kts | 36° |
| 2026-05-06 18:07 | 43.95747 | 7.90685 | 39857 ft | 520 kts | 41° |
| 2026-05-06 18:07 | 44.01040 | 7.97485 | 39825 ft | 522 kts | 42° |
| 2026-05-06 18:08 | 44.06300 | 8.04472 | 39836 ft | 523 kts | 43° |
| 2026-05-06 18:08 | 44.11560 | 8.11517 | 39829 ft | 524 kts | 43° |
| 2026-05-06 18:09 | 44.16799 | 8.18537 | 39830 ft | 524 kts | 43° |
| 2026-05-06 18:09 | 44.22060 | 8.25593 | 39821 ft | 523 kts | 43° |
| 2026-05-06 18:10 | 44.27275 | 8.32605 | 39821 ft | 523 kts | 43° |
| 2026-05-06 18:10 | 44.32513 | 8.39666 | 39833 ft | 521 kts | 43° |
| 2026-05-06 18:11 | 44.36850 | 8.45527 | 39823 ft | 519 kts | 43° |
| 2026-05-06 18:11 | 44.42890 | 8.53707 | 39860 ft | 519 kts | 43° |
| 2026-05-06 18:12 | 44.48076 | 8.60756 | 39867 ft | 520 kts | 43° |
| 2026-05-06 18:12 | 44.53267 | 8.67829 | 39869 ft | 520 kts | 43° |
| 2026-05-06 18:13 | 44.58427 | 8.74876 | 39857 ft | 520 kts | 43° |
| 2026-05-06 18:13 | 44.63614 | 8.81978 | 39867 ft | 520 kts | 43° |
| 2026-05-06 18:14 | 44.68770 | 8.89057 | 39857 ft | 520 kts | 44° |
| 2026-05-06 18:14 | 44.73945 | 8.96183 | 39840 ft | 520 kts | 44° |
| 2026-05-06 18:15 | 44.79117 | 9.03323 | 39842 ft | 520 kts | 44° |
| 2026-05-06 18:15 | 44.84257 | 9.10436 | 39845 ft | 520 kts | 44° |
| 2026-05-06 18:16 | 44.89425 | 9.17607 | 39817 ft | 519 kts | 44° |
| 2026-05-06 18:16 | 44.94545 | 9.24731 | 39829 ft | 520 kts | 44° |
| 2026-05-06 18:17 | 44.99698 | 9.31919 | 39830 ft | 521 kts | 44° |
| 2026-05-06 18:17 | 45.04862 | 9.39142 | 39827 ft | 521 kts | 44° |
| 2026-05-06 18:18 | 45.10021 | 9.46378 | 39818 ft | 522 kts | 44° |
| 2026-05-06 18:18 | 45.15149 | 9.53590 | 39818 ft | 522 kts | 44° |
| 2026-05-06 18:19 | 45.20302 | 9.60857 | 39821 ft | 522 kts | 44° |
| 2026-05-06 18:19 | 45.25429 | 9.68106 | 39832 ft | 522 kts | 44° |
| 2026-05-06 18:20 | 45.30574 | 9.75401 | 39874 ft | 522 kts | 44° |
| 2026-05-06 18:20 | 45.35722 | 9.82719 | 39895 ft | 523 kts | 44° |
| 2026-05-06 18:21 | 45.39995 | 9.88808 | 39824 ft | 522 kts | 44° |
| 2026-05-06 18:21 | 45.45976 | 9.97355 | 39827 ft | 523 kts | 44° |
| 2026-05-06 18:22 | 45.50225 | 10.03479 | 39830 ft | 523 kts | 45° |
| 2026-05-06 18:22 | 45.55233 | 10.10998 | 39832 ft | 522 kts | 46° |
| 2026-05-06 18:23 | 45.60225 | 10.18579 | 39836 ft | 521 kts | 46° |
| 2026-05-06 18:23 | 45.65172 | 10.26072 | 39856 ft | 520 kts | 46° |
| 2026-05-06 18:24 | 45.70150 | 10.33603 | 39880 ft | 520 kts | 46° |
| 2026-05-06 18:24 | 45.75115 | 10.41130 | 39900 ft | 517 kts | 46° |
| 2026-05-06 18:25 | 45.80006 | 10.48565 | 39908 ft | 515 kts | 46° |
| 2026-05-06 18:25 | 45.84923 | 10.56061 | 39922 ft | 515 kts | 46° |
| 2026-05-06 18:26 | 45.89837 | 10.63574 | 39919 ft | 515 kts | 46° |
| 2026-05-06 18:26 | 45.95245 | 10.70199 | 39931 ft | 510 kts | 29° |
| 2026-05-06 18:27 | 46.01367 | 10.75236 | 39921 ft | 508 kts | 26° |
| 2026-05-06 18:27 | 46.07627 | 10.80026 | 39946 ft | 509 kts | 26° |
| 2026-05-06 18:28 | 46.11253 | 10.82783 | 39951 ft | 509 kts | 26° |
| 2026-05-06 18:28 | 46.17472 | 10.87545 | 39955 ft | 508 kts | 26° |
| 2026-05-06 18:29 | 46.23719 | 10.92373 | 39951 ft | 508 kts | 26° |
| 2026-05-06 18:29 | 46.29966 | 10.97221 | 39964 ft | 508 kts | 26° |
| 2026-05-06 18:30 | 46.36165 | 11.02053 | 39965 ft | 508 kts | 26° |
| 2026-05-06 18:30 | 46.42712 | 11.05728 | 39924 ft | 502 kts | 8° |
| 2026-05-06 18:31 | 46.49632 | 11.06553 | 39918 ft | 496 kts | 358° |
| 2026-05-06 18:31 | 46.56462 | 11.06611 | 39470 ft | 489 kts | 356° |
| 2026-05-06 18:32 | 46.59864 | 11.06581 | 39007 ft | 488 kts | 356° |
| 2026-05-06 18:32 | 46.63254 | 11.06517 | 38585 ft | 485 kts | 353° |
| 2026-05-06 18:32 | 46.66599 | 11.06079 | 38114 ft | 480 kts | 350° |
| 2026-05-06 18:32 | 46.69915 | 11.05527 | 37686 ft | 475 kts | 349° |
| 2026-05-06 18:33 | 46.73190 | 11.04940 | 37288 ft | 471 kts | 348° |
| 2026-05-06 18:33 | 46.76392 | 11.04346 | 36898 ft | 467 kts | 348° |
| 2026-05-06 18:33 | 46.79619 | 11.03737 | 36505 ft | 468 kts | 347° |
| 2026-05-06 18:33 | 46.82868 | 11.03121 | 36062 ft | 470 kts | 347° |
| 2026-05-06 18:34 | 46.86125 | 11.02493 | 35633 ft | 472 kts | 347° |
| 2026-05-06 18:34 | 46.89394 | 11.01860 | 35225 ft | 474 kts | 347° |
| 2026-05-06 18:34 | 46.92686 | 11.01262 | 34809 ft | 478 kts | 349° |
| 2026-05-06 18:34 | 46.96038 | 11.01229 | 34285 ft | 487 kts | 358° |
| 2026-05-06 18:35 | 46.99448 | 11.01557 | 33403 ft | 494 kts | 359° |
| 2026-05-06 18:35 | 47.02862 | 11.02006 | 32433 ft | 501 kts | 1° |
| 2026-05-06 18:35 | 47.06348 | 11.02537 | 31483 ft | 505 kts | 1° |
| 2026-05-06 18:35 | 47.09863 | 11.03103 | 30540 ft | 510 kts | 2° |
| 2026-05-06 18:36 | 47.13397 | 11.03672 | 29720 ft | 509 kts | 2° |
| 2026-05-06 18:36 | 47.16914 | 11.04228 | 28994 ft | 506 kts | 2° |
| 2026-05-06 18:36 | 47.20399 | 11.04778 | 28272 ft | 499 kts | 2° |
| 2026-05-06 18:36 | 47.23835 | 11.05338 | 27598 ft | 494 kts | 2° |
| 2026-05-06 18:37 | 47.27227 | 11.05888 | 26874 ft | 486 kts | 2° |
| 2026-05-06 18:37 | 47.30573 | 11.06405 | 26235 ft | 480 kts | 3° |
| 2026-05-06 18:37 | 47.33853 | 11.06896 | 25555 ft | 476 kts | 3° |
| 2026-05-06 18:37 | 47.37144 | 11.07380 | 24894 ft | 472 kts | 3° |
| 2026-05-06 18:38 | 47.40404 | 11.07864 | 24223 ft | 468 kts | 4° |
| 2026-05-06 18:38 | 47.43636 | 11.08353 | 23558 ft | 464 kts | 4° |
| 2026-05-06 18:38 | 47.46839 | 11.08844 | 22820 ft | 459 kts | 4° |
| 2026-05-06 18:38 | 47.50004 | 11.09333 | 22135 ft | 453 kts | 4° |
| 2026-05-06 18:39 | 47.53125 | 11.09818 | 21491 ft | 447 kts | 4° |
| 2026-05-06 18:39 | 47.56151 | 11.10712 | 20841 ft | 443 kts | 17° |
| 2026-05-06 18:39 | 47.58948 | 11.12438 | 20195 ft | 438 kts | 25° |
| 2026-05-06 18:40 | 47.64252 | 11.16699 | 19051 ft | 426 kts | 31° |
| 2026-05-06 18:40 | 47.66788 | 11.18942 | 18596 ft | 422 kts | 31° |
| 2026-05-06 18:40 | 47.69296 | 11.21188 | 18155 ft | 420 kts | 32° |
| 2026-05-06 18:40 | 47.71802 | 11.23425 | 17657 ft | 417 kts | 31° |
| 2026-05-06 18:41 | 47.74397 | 11.25340 | 17128 ft | 415 kts | 24° |
| 2026-05-06 18:41 | 47.77048 | 11.27003 | 16645 ft | 412 kts | 21° |
| 2026-05-06 18:41 | 47.79680 | 11.28531 | 16158 ft | 409 kts | 20° |
| 2026-05-06 18:41 | 47.82340 | 11.30012 | 15668 ft | 406 kts | 19° |
| 2026-05-06 18:42 | 47.84979 | 11.31533 | 15202 ft | 404 kts | 21° |
| 2026-05-06 18:42 | 47.87577 | 11.33116 | 14904 ft | 401 kts | 21° |
| 2026-05-06 18:42 | 47.90151 | 11.34718 | 14860 ft | 401 kts | 22° |
| 2026-05-06 18:42 | 47.92653 | 11.36281 | 14855 ft | 384 kts | 22° |
| 2026-05-06 18:43 | 47.95064 | 11.37783 | 14858 ft | 366 kts | 21° |
| 2026-05-06 18:43 | 47.97397 | 11.39228 | 14857 ft | 361 kts | 21° |
| 2026-05-06 18:43 | 47.99717 | 11.40657 | 14856 ft | 360 kts | 21° |
| 2026-05-06 18:43 | 48.02038 | 11.42081 | 14825 ft | 359 kts | 21° |
| 2026-05-06 18:44 | 48.04354 | 11.43501 | 14529 ft | 359 kts | 21° |
| 2026-05-06 18:44 | 48.06683 | 11.44931 | 14100 ft | 364 kts | 21° |
| 2026-05-06 18:44 | 48.09042 | 11.46379 | 13678 ft | 368 kts | 20° |
| 2026-05-06 18:44 | 48.11414 | 11.47837 | 13195 ft | 367 kts | 20° |
| 2026-05-06 18:45 | 48.13772 | 11.49290 | 12722 ft | 365 kts | 20° |
| 2026-05-06 18:45 | 48.16082 | 11.50715 | 12262 ft | 363 kts | 20° |
| 2026-05-06 18:45 | 48.18411 | 11.52154 | 11793 ft | 360 kts | 20° |
| 2026-05-06 18:45 | 48.20630 | 11.53848 | 11344 ft | 356 kts | 32° |
| 2026-05-06 18:46 | 48.22475 | 11.56219 | 10909 ft | 347 kts | 49° |
| 2026-05-06 18:46 | 48.23752 | 11.59195 | 10511 ft | 332 kts | 68° |
| 2026-05-06 18:46 | 48.24425 | 11.62468 | 10034 ft | 325 kts | 80° |
| 2026-05-06 18:46 | 48.24821 | 11.65785 | 9527 ft | 319 kts | 84° |
| 2026-05-06 18:47 | 48.25080 | 11.69039 | 9050 ft | 307 kts | 86° |
| 2026-05-06 18:47 | 48.25278 | 11.72185 | 8624 ft | 307 kts | 87° |
| 2026-05-06 18:47 | 48.25468 | 11.75403 | 8221 ft | 310 kts | 86° |
| 2026-05-06 18:47 | 48.25670 | 11.78618 | 7809 ft | 308 kts | 86° |
| 2026-05-06 18:48 | 48.25886 | 11.81816 | 7411 ft | 306 kts | 85° |
| 2026-05-06 18:48 | 48.26115 | 11.84993 | 7031 ft | 305 kts | 84° |
| 2026-05-06 18:48 | 48.26350 | 11.88144 | 6663 ft | 303 kts | 84° |
| 2026-05-06 18:48 | 48.26589 | 11.91288 | 6311 ft | 303 kts | 84° |
| 2026-05-06 18:49 | 48.26829 | 11.94438 | 5923 ft | 305 kts | 83° |
| 2026-05-06 18:49 | 48.27072 | 11.97636 | 5544 ft | 310 kts | 83° |
| 2026-05-06 18:49 | 48.27314 | 12.00846 | 5175 ft | 308 kts | 83° |
| 2026-05-06 18:49 | 48.27551 | 12.03996 | 5010 ft | 296 kts | 82° |
| 2026-05-06 18:50 | 48.27772 | 12.06948 | 4994 ft | 281 kts | 83° |
| 2026-05-06 18:50 | 48.27982 | 12.09791 | 4994 ft | 266 kts | 84° |
| 2026-05-06 18:50 | 48.28179 | 12.12482 | 4999 ft | 253 kts | 83° |
| 2026-05-06 18:50 | 48.28456 | 12.15020 | 4976 ft | 239 kts | 69° |
| 2026-05-06 18:51 | 48.29353 | 12.17006 | 5001 ft | 226 kts | 34° |
| 2026-05-06 18:51 | 48.30729 | 12.17929 | 5015 ft | 225 kts | 3° |
| 2026-05-06 18:51 | 48.32339 | 12.18129 | 5016 ft | 236 kts | 355° |
| 2026-05-06 18:51 | 48.33989 | 12.18167 | 5009 ft | 237 kts | 354° |
| 2026-05-06 18:52 | 48.35564 | 12.17678 | 5007 ft | 227 kts | 327° |
| 2026-05-06 18:52 | 48.36665 | 12.16126 | 5006 ft | 215 kts | 296° |
| 2026-05-06 18:52 | 48.37023 | 12.13935 | 5014 ft | 220 kts | 271° |
| 2026-05-06 18:52 | 48.36929 | 12.11623 | 5003 ft | 222 kts | 264° |
| 2026-05-06 18:53 | 48.36746 | 12.09349 | 5003 ft | 220 kts | 264° |
| 2026-05-06 18:53 | 48.36557 | 12.07081 | 4988 ft | 218 kts | 264° |
| 2026-05-06 18:53 | 48.36350 | 12.04823 | 4789 ft | 217 kts | 264° |
| 2026-05-06 18:53 | 48.36159 | 12.02565 | 4467 ft | 217 kts | 265° |
| 2026-05-06 18:54 | 48.35996 | 12.00308 | 4140 ft | 215 kts | 265° |
| 2026-05-06 18:54 | 48.35833 | 11.98109 | 3843 ft | 211 kts | 264° |
| 2026-05-06 18:54 | 48.35667 | 11.95991 | 3554 ft | 195 kts | 264° |
| 2026-05-06 18:54 | 48.35518 | 11.94063 | 3304 ft | 177 kts | 265° |
| 2026-05-06 18:55 | 48.35384 | 11.92326 | 3103 ft | 155 kts | 265° |
| 2026-05-06 18:55 | 48.35269 | 11.90823 | 2872 ft | 135 kts | 264° |
| 2026-05-06 18:55 | 48.35168 | 11.89512 | 2715 ft | 120 kts | 264° |
| 2026-05-06 18:55 | 48.35076 | 11.88290 | 2545 ft | 116 kts | 263° |
| 2026-05-06 18:56 | 48.34985 | 11.87091 | 2385 ft | 116 kts | 264° |
| 2026-05-06 18:56 | 48.34894 | 11.85882 | 2225 ft | 117 kts | 262° |
| 2026-05-06 18:56 | 48.34802 | 11.84671 | 2070 ft | 116 kts | 261° |
| 2026-05-06 18:56 | 48.34702 | 11.83472 | 1874 ft | 115 kts | 264° |
| 2026-05-06 18:57 | 48.34620 | 11.82284 | 1714 ft | 110 kts | 262° |
| 2026-05-06 18:57 | 48.34533 | 11.81151 | 1585 ft | 108 kts | 263° |
| 2026-05-06 18:57 | 48.34445 | 11.80022 | 1506 ft | 107 kts | 262° |
| 2026-05-06 18:57 | 48.34374 | 11.79087 | 1485 ft | 67 kts | 263° |
| 2026-05-06 18:58 | 48.34368 | 11.78660 | 1483 ft | 19 kts | 279° |
| 2026-05-06 18:58 | 48.34412 | 11.78470 | 1477 ft | 20 kts | 293° |
| 2026-05-06 18:58 | 48.34465 | 11.78288 | 1476 ft | 8 kts | 293° |
| 2026-05-06 18:58 | 48.34468 | 11.78277 | 1478 ft | 2 kts | 293° |
| 2026-05-06 18:59 | 48.34479 | 11.78241 | 1482 ft | 5 kts | 293° |
| 2026-05-06 18:59 | 48.34496 | 11.78181 | 1474 ft | 2 kts | 294° |
| 2026-05-06 18:59 | 48.34497 | 11.78180 | 1474 ft | 1 kts | 294° |
| 2026-05-06 18:59 | 48.34503 | 11.78160 | 1478 ft | 4 kts | 294° |
| 2026-05-06 19:00 | 48.34517 | 11.78112 | 1476 ft | 6 kts | 295° |
| 2026-05-06 19:00 | 48.34528 | 11.78079 | 1483 ft | 4 kts | 296° |
| 2026-05-06 19:00 | 48.34538 | 11.78063 | 1474 ft | 1 kts | 328° |
| 2026-05-06 19:00 | 48.34543 | 11.78065 | 1474 ft | 1 kts | 0° |
| 2026-05-06 19:01 | 48.34578 | 11.78069 | 1484 ft | 6 kts | 4° |
| 2026-05-06 19:01 | 48.34634 | 11.78070 | 1478 ft | 10 kts | 355° |
| 2026-05-06 19:01 | 48.34664 | 11.78063 | 1488 ft | 0 kts | 352° |
| 2026-05-06 19:01 | 48.34686 | 11.78059 | 1477 ft | 5 kts | 353° |
| 2026-05-06 19:02 | 48.34731 | 11.78052 | 1476 ft | 8 kts | 353° |
| 2026-05-06 19:02 | 48.34785 | 11.78043 | 1476 ft | 5 kts | 353° |
| 2026-05-06 19:02 | 48.34786 | 11.78043 | 1476 ft | 0 kts | 353° |
| 2026-05-06 19:04 | 48.34792 | 11.78042 | 1490 ft | 3 kts | 353° |
| 2026-05-06 19:04 | 48.34824 | 11.78036 | 1483 ft | 7 kts | 353° |
| 2026-05-06 19:05 | 48.34868 | 11.78058 | 1484 ft | 7 kts | 44° |
| 2026-05-06 19:05 | 48.34882 | 11.78136 | 1476 ft | 9 kts | 86° |
| 2026-05-06 19:05 | 48.34913 | 11.78225 | 1478 ft | 11 kts | 30° |
| 2026-05-06 19:05 | 48.34952 | 11.78230 | 1490 ft | 1 kts | 350° |
| 2026-05-06 19:06 | 48.34969 | 11.78227 | 1490 ft | 3 kts | 0° |
| 2026-05-06 19:06 | 48.34984 | 11.78241 | 1487 ft | 1 kts | 45° |
| 2026-05-06 19:06 | 48.34988 | 11.78260 | 1474 ft | 3 kts | 65° |
| 2026-05-06 19:06 | 48.34992 | 11.78296 | 1481 ft | 5 kts | 81° |
| 2026-05-06 19:07 | 48.34996 | 11.78350 | 1482 ft | 0 kts | 84° |
| 2026-05-06 19:07 | 48.34997 | 11.78363 | 1484 ft | 0 kts | 84° |
| 2026-05-06 19:07 | 48.34997 | 11.78366 | 1484 ft | 0 kts | 84° |